Time;durP1;ratioP1;P1;durP2;ratioP2;P2;SDS_P1;SDS_P2;PMS_P1;PMS_P2;Temp;Humidity;BMP_temperature;BMP_pressure;BME280_temperature;BME280_humidity;BME280_pressure;Samples;Min_cycle;Max_cycle;Signal;HPM_P1;HPM_P2
2021/03/16 00:02:12;;;;;;;7.10;3.80;;;3.80;99.90;;;;;;6155036;28;20039;-82
2021/03/16 00:05:14;;;;;;;7.20;3.60;;;4.00;99.90;;;;;;6155290;28;20047;-83
2021/03/16 00:08:14;;;;;;;7.15;4.22;;;4.00;99.90;;;;;;6154933;28;20097;-82
2021/03/16 00:11:15;;;;;;;5.30;3.50;;;;;;;;;;6155197;28;20031;-82
2021/03/16 00:14:16;;;;;;;5.85;3.90;;;3.80;99.90;;;;;;6155351;28;20407;-82
2021/03/16 00:17:17;;;;;;;5.72;3.78;;;3.90;99.90;;;;;;6154901;28;20027;-82
2021/03/16 00:20:17;;;;;;;6.65;4.38;;;3.70;99.90;;;;;;6154784;28;20444;-82
2021/03/16 00:23:18;;;;;;;7.10;4.20;;;3.80;99.90;;;;;;6149970;28;20454;-82
2021/03/16 00:26:19;;;;;;;8.05;4.38;;;;;;;;;;6148453;28;20128;-82
2021/03/16 00:29:20;;;;;;;7.72;4.68;;;;;;;;;;6157870;28;20027;-82
2021/03/16 00:32:21;;;;;;;6.60;3.90;;;;;;;;;;6155934;28;20453;-82
2021/03/16 00:35:22;;;;;;;6.57;4.38;;;;;;;;;;6157654;28;20078;-82
2021/03/16 00:38:23;;;;;;;6.47;4.43;;;;;;;;;;6148716;28;20071;-82
2021/03/16 00:41:24;;;;;;;8.10;4.65;;;;;;;;;;6147454;28;20178;-83
2021/03/16 00:44:25;;;;;;;7.82;4.35;;;3.90;99.90;;;;;;6131385;28;20070;-82
2021/03/16 00:47:26;;;;;;;6.72;4.50;;;;;;;;;;6151658;28;20043;-82
2021/03/16 00:50:27;;;;;;;5.57;4.00;;;3.60;99.90;;;;;;6156602;28;20034;-82
2021/03/16 00:53:27;;;;;;;4.97;4.45;;;4.20;99.90;;;;;;6168835;28;20034;-82
2021/03/16 00:56:28;;;;;;;12.40;4.85;;;;;;;;;;6153290;28;20358;-82
2021/03/16 00:59:29;;;;;;;8.05;5.38;;;3.90;99.90;;;;;;6147206;28;20023;-82
2021/03/16 01:02:29;;;;;;;9.13;4.95;;;3.70;99.90;;;;;;6131321;28;20047;-82
2021/03/16 01:05:31;;;;;;;6.07;4.45;;;3.70;99.90;;;;;;6137507;28;20051;-82
2021/03/16 01:08:31;;;;;;;7.85;4.25;;;3.50;99.90;;;;;;6141177;28;20034;-83
2021/03/16 01:11:32;;;;;;;7.75;4.28;;;3.80;99.90;;;;;;6123010;28;20034;-82
2021/03/16 01:14:33;;;;;;;9.00;5.25;;;;;;;;;;6164601;28;20390;-82
2021/03/16 01:17:33;;;;;;;8.27;4.57;;;3.60;99.90;;;;;;6135759;28;20548;-82
2021/03/16 01:20:34;;;;;;;9.35;4.75;;;3.80;99.90;;;;;;6146549;28;20164;-82
2021/03/16 01:23:36;;;;;;;8.63;4.88;;;3.70;99.90;;;;;;6146713;28;20488;-82
2021/03/16 01:26:36;;;;;;;8.45;4.85;;;3.80;99.90;;;;;;6130350;28;20101;-83
2021/03/16 01:29:37;;;;;;;6.25;4.10;;;3.50;99.90;;;;;;6167528;28;20958;-82
2021/03/16 01:32:38;;;;;;;6.15;4.53;;;3.70;99.90;;;;;;6133960;28;20030;-82
2021/03/16 01:35:38;;;;;;;7.45;4.60;;;3.70;99.90;;;;;;6137346;28;20461;-83
2021/03/16 01:38:39;;;;;;;10.23;4.68;;;3.80;99.90;;;;;;6152840;28;20039;-82
2021/03/16 01:41:40;;;;;;;9.75;4.53;;;;;;;;;;6122152;28;20065;-82
2021/03/16 01:44:43;;;;;;;6.68;4.53;;;3.60;99.90;;;;;;6152716;28;20473;-82
2021/03/16 01:47:48;;;;;;;7.72;4.80;;;3.80;99.90;;;;;;6152874;28;20035;-82
2021/03/16 01:50:49;;;;;;;8.20;4.57;;;3.50;99.90;;;;;;6153291;28;20038;-83
2021/03/16 01:53:49;;;;;;;9.40;4.93;;;3.50;99.90;;;;;;6140657;28;20039;-82
2021/03/16 01:56:50;;;;;;;8.32;4.78;;;;;;;;;;6143864;28;20031;-82
2021/03/16 01:59:51;;;;;;;6.22;5.03;;;3.70;99.90;;;;;;6146110;28;20023;-83
2021/03/16 02:02:51;;;;;;;7.05;4.00;;;3.50;99.90;;;;;;6130004;28;20039;-82
2021/03/16 02:05:52;;;;;;;5.45;4.15;;;3.70;99.90;;;;;;6132228;28;20042;-82
2021/03/16 02:09:25;;;;;;;5.65;4.55;;;3.60;99.90;;;;;;6152976;28;20051;-82
2021/03/16 02:12:43;;;;;;;8.70;4.72;;;3.60;99.90;;;;;;6136245;28;20133;-82
2021/03/16 02:15:44;;;;;;;5.88;4.57;;;3.60;99.90;;;;;;6155105;28;20036;-83
2021/03/16 02:18:50;;;;;;;7.05;4.82;;;3.70;99.90;;;;;;6152160;28;20034;-82
2021/03/16 02:21:50;;;;;;;7.15;4.68;;;3.80;99.90;;;;;;6135703;28;20470;-82
2021/03/16 02:24:51;;;;;;;7.15;4.57;;;;;;;;;;6145401;28;20055;-83
2021/03/16 02:28:10;;;;;;;7.53;5.47;;;3.40;99.90;;;;;;6149271;28;20504;-83
2021/03/16 02:31:12;;;;;;;7.43;4.72;;;3.60;99.90;;;;;;6152016;28;20035;-82
2021/03/16 02:34:16;;;;;;;6.53;5.15;;;3.60;99.90;;;;;;6149971;28;20061;-82
2021/03/16 02:37:17;;;;;;;11.63;5.00;;;3.60;99.90;;;;;;6135472;28;20031;-82
2021/03/16 02:40:17;;;;;;;6.82;5.22;;;3.40;99.90;;;;;;6130323;28;20066;-82
2021/03/16 02:43:18;;;;;;;10.27;5.40;;;3.70;99.90;;;;;;6125350;28;20041;-83
2021/03/16 02:46:18;;;;;;;8.48;5.03;;;3.50;99.90;;;;;;6128862;28;20098;-82
2021/03/16 02:49:19;;;;;;;6.95;4.95;;;3.50;99.90;;;;;;6145247;28;20476;-82
2021/03/16 02:52:20;;;;;;;7.55;4.70;;;3.80;99.90;;;;;;6145097;28;20027;-81
2021/03/16 02:55:23;;;;;;;9.10;4.80;;;3.40;99.90;;;;;;6129545;28;20442;-82
2021/03/16 02:58:24;;;;;;;6.43;4.60;;;;;;;;;;6150142;28;20038;-82
2021/03/16 03:01:25;;;;;;;7.60;5.03;;;3.70;99.90;;;;;;6152089;28;20470;-81
2021/03/16 03:04:27;;;;;;;10.75;4.80;;;;;;;;;;6141382;28;20074;-82
2021/03/16 03:07:27;;;;;;;6.07;4.63;;;3.50;99.90;;;;;;6135849;28;20070;-82
2021/03/16 03:10:28;;;;;;;6.82;4.63;;;;;;;;;;6153069;28;20042;-82
2021/03/16 03:13:29;;;;;;;7.05;4.20;;;3.50;99.90;;;;;;6173994;28;20023;-82
2021/03/16 03:16:30;;;;;;;7.15;5.00;;;;;;;;;;6156266;28;20433;-82
2021/03/16 03:19:31;;;;;;;7.47;4.38;;;3.70;99.90;;;;;;6151388;28;20113;-82
2021/03/16 03:23:11;;;;;;;10.13;5.25;;;3.50;99.90;;;;;;6138363;28;20489;-82
2021/03/16 03:26:17;;;;;;;8.65;4.43;;;;;;;;;;6133982;28;20050;-82
2021/03/16 03:29:17;;;;;;;7.10;4.88;;;3.60;99.90;;;;;;6136850;28;20415;-82
2021/03/16 03:32:18;;;;;;;7.88;4.50;;;3.90;99.90;;;;;;6139702;28;20125;-82
2021/03/16 03:35:19;;;;;;;6.22;4.50;;;3.60;99.90;;;;;;6156565;28;20042;-82
2021/03/16 03:38:20;;;;;;;7.70;4.32;;;3.70;99.90;;;;;;6137308;28;20137;-82
2021/03/16 03:41:22;;;;;;;10.40;4.35;;;3.50;99.90;;;;;;6135239;28;20059;-82
2021/03/16 03:44:23;;;;;;;6.07;4.90;;;3.50;99.90;;;;;;6132970;28;20458;-82
2021/03/16 03:47:23;;;;;;;7.70;4.93;;;3.30;99.90;;;;;;6132855;28;20133;-82
2021/03/16 03:50:24;;;;;;;6.68;4.50;;;3.40;99.90;;;;;;6134526;28;20031;-82
2021/03/16 03:53:25;;;;;;;5.50;4.03;;;3.40;99.90;;;;;;6148942;28;20019;-82
2021/03/16 03:56:27;;;;;;;6.93;4.00;;;3.30;99.90;;;;;;6132549;28;20035;-83
2021/03/16 03:59:28;;;;;;;6.93;4.43;;;3.40;99.90;;;;;;6149445;28;20061;-82
2021/03/16 04:02:28;;;;;;;6.05;3.85;;;3.40;99.90;;;;;;6154871;28;20266;-82
2021/03/16 04:05:29;;;;;;;5.53;3.95;;;3.50;99.90;;;;;;6131886;28;20897;-82
2021/03/16 04:08:29;;;;;;;6.10;3.83;;;3.50;99.90;;;;;;6132669;28;20090;-82
2021/03/16 04:11:30;;;;;;;11.15;4.18;;;3.50;99.90;;;;;;6132090;28;20039;-82
2021/03/16 04:14:31;;;;;;;8.02;4.05;;;3.30;99.90;;;;;;6148183;28;20031;-81
2021/03/16 04:17:32;;;;;;;5.22;3.70;;;3.80;99.90;;;;;;6132130;28;20377;-82
2021/03/16 04:20:33;;;;;;;6.07;3.70;;;4.80;99.90;;;;;;6132335;28;20105;-82
2021/03/16 04:23:33;;;;;;;6.75;3.83;;;3.50;99.90;;;;;;6148065;28;20023;-82
2021/03/16 04:26:34;;;;;;;7.15;4.55;;;4.70;99.90;;;;;;6132526;28;20485;-82
2021/03/16 04:29:35;;;;;;;6.00;4.07;;;3.90;99.90;;;;;;6150200;28;20023;-81
2021/03/16 04:32:35;;;;;;;7.30;4.50;;;3.40;99.90;;;;;;6147864;28;20036;-82
2021/03/16 04:35:36;;;;;;;5.88;4.35;;;3.70;99.90;;;;;;6148057;28;20042;-82
2021/03/16 04:38:37;;;;;;;7.90;4.57;;;3.40;99.90;;;;;;6149533;28;20031;-82
2021/03/16 04:41:37;;;;;;;6.70;3.97;;;3.10;99.90;;;;;;6154796;28;20564;-82
2021/03/16 04:44:38;;;;;;;5.15;4.20;;;;;;;;;;6171778;28;20434;-82
2021/03/16 04:47:39;;;;;;;7.65;4.30;;;3.60;99.90;;;;;;6154665;28;20051;-82
2021/03/16 04:50:40;;;;;;;6.55;4.10;;;3.50;99.90;;;;;;6158811;28;20027;-83
2021/03/16 04:53:40;;;;;;;5.30;3.70;;;4.20;99.90;;;;;;6134695;28;20031;-82
2021/03/16 04:56:41;;;;;;;4.38;3.83;;;3.40;99.90;;;;;;6154181;28;20035;-82
2021/03/16 04:59:41;;;;;;;5.05;3.60;;;3.60;99.90;;;;;;6153903;28;20035;-82
2021/03/16 05:02:42;;;;;;;6.88;3.88;;;3.40;99.90;;;;;;6154055;28;20038;-83
2021/03/16 05:05:43;;;;;;;5.22;4.10;;;4.70;99.90;;;;;;6134171;28;20043;-83
2021/03/16 05:08:43;;;;;;;4.75;3.80;;;3.70;99.90;;;;;;6154410;28;20027;-83
2021/03/16 05:11:44;;;;;;;5.22;3.78;;;3.30;99.90;;;;;;6149144;28;20050;-82
2021/03/16 05:14:45;;;;;;;9.20;4.15;;;;;;;;;;6140232;28;20081;-82
2021/03/16 05:17:46;;;;;;;5.53;4.10;;;3.20;99.90;;;;;;6137782;28;20616;-83
2021/03/16 05:20:47;;;;;;;5.85;3.83;;;;;;;;;;6117033;28;20077;-82
2021/03/16 05:23:47;;;;;;;8.38;4.13;;;3.20;99.90;;;;;;6169725;28;20118;-81
2021/03/16 05:26:48;;;;;;;4.32;3.92;;;3.60;99.90;;;;;;6140665;28;20106;-82
2021/03/16 05:29:48;;;;;;;6.53;3.85;;;3.60;99.90;;;;;;6139129;28;20038;-82
2021/03/16 05:32:59;;;;;;;5.65;3.95;;;3.10;99.90;;;;;;6152651;28;20043;-82
2021/03/16 05:36:00;;;;;;;6.43;4.18;;;3.00;99.90;;;;;;6147318;28;20501;-86
2021/03/16 05:39:00;;;;;;;5.88;4.40;;;3.50;99.90;;;;;;6141292;28;20066;-86
2021/03/16 05:42:01;;;;;;;8.20;3.88;;;;;;;;;;6136047;28;20059;-85
2021/03/16 05:45:02;;;;;;;5.57;4.22;;;3.10;99.90;;;;;;6126815;28;20476;-87
2021/03/16 05:48:04;;;;;;;5.40;3.75;;;3.80;99.90;;;;;;6135602;28;20050;-87
2021/03/16 05:51:05;;;;;;;6.22;4.13;;;3.00;99.90;;;;;;6146140;28;20098;-89
2021/03/16 05:54:06;;;;;;;9.38;4.03;;;3.20;99.90;;;;;;6129490;28;20121;-86
2021/03/16 05:57:07;;;;;;;6.28;4.20;;;3.10;99.90;;;;;;6145170;28;20046;-88
2021/03/16 06:00:09;;;;;;;6.40;4.00;;;3.30;99.90;;;;;;6145460;28;20175;-86
2021/03/16 06:03:09;;;;;;;5.53;3.95;;;3.20;99.90;;;;;;6122292;28;20286;-82
2021/03/16 06:06:10;;;;;;;6.90;3.97;;;3.20;99.90;;;;;;6156171;28;20078;-89
2021/03/16 06:09:11;;;;;;;7.13;4.22;;;3.10;99.90;;;;;;6138835;28;20031;-89
2021/03/16 06:12:12;;;;;;;5.85;3.78;;;3.20;99.90;;;;;;6126733;28;20445;-84
2021/03/16 06:15:17;;;;;;;6.10;4.20;;;3.40;99.90;;;;;;6131766;28;20117;-88
2021/03/16 06:18:28;;;;;;;6.63;4.32;;;3.20;99.90;;;;;;6126729;28;20027;-89
2021/03/16 06:21:41;;;;;;;6.13;4.13;;;3.30;99.90;;;;;;6163064;28;20022;-90
2021/03/16 06:24:48;;;;;;;;;;;3.50;99.90;;;;;;6148591;28;20030;-90
2021/03/16 06:28:00;;;;;;;7.82;4.60;;;3.40;99.90;;;;;;6140240;28;19957;-88
2021/03/16 06:31:01;;;;;;;;;;;4.90;99.90;;;;;;6134459;28;20039;-86
2021/03/16 06:34:02;;;;;;;7.57;5.00;;;3.40;99.90;;;;;;6141132;28;20265;-81
2021/03/16 06:37:03;;;;;;;9.90;4.97;;;3.50;99.90;;;;;;6153098;28;20042;-82
2021/03/16 06:40:04;;;;;;;10.25;5.28;;;;;;;;;;6151816;28;20833;-82
2021/03/16 06:43:06;;;;;;;8.55;5.32;;;;;;;;;;6142210;28;20382;-86
2021/03/16 06:46:07;;;;;;;9.05;5.30;;;;;;;;;;6144926;28;20106;-86
2021/03/16 06:49:15;;;;;;;10.80;5.63;;;3.80;99.90;;;;;;6147115;28;20019;-86
2021/03/16 06:52:16;;;;;;;7.07;5.13;;;;;;;;;;6159084;28;20034;-85
2021/03/16 06:55:17;;;;;;;7.22;5.13;;;3.80;99.90;;;;;;6145596;28;20054;-84
2021/03/16 06:58:24;;;;;;;7.70;4.90;;;3.70;99.90;;;;;;6124583;28;20037;-85
2021/03/16 07:01:32;;;;;;;5.88;4.30;;;4.00;99.90;;;;;;6141423;28;20065;-86
2021/03/16 07:04:33;;;;;;;8.70;4.68;;;;;;;;;;6140901;28;20031;-82
2021/03/16 07:07:34;;;;;;;13.73;4.95;;;4.00;99.90;;;;;;6124635;28;20038;-81
2021/03/16 07:10:35;;;;;;;7.88;4.55;;;;;;;;;;6134606;28;20035;-82
2021/03/16 07:13:36;;;;;;;7.30;4.65;;;4.20;99.90;;;;;;6156378;28;20035;-81
2021/03/16 07:16:37;;;;;;;6.10;4.00;;;4.60;99.90;;;;;;6151730;28;20470;-81
2021/03/16 07:19:38;;;;;;;8.13;3.85;;;4.10;99.90;;;;;;6140305;28;20038;-81
2021/03/16 07:22:49;;;;;;;5.60;3.72;;;4.40;99.90;;;;;;6154329;28;20581;-81
2021/03/16 07:26:02;;;;;;;7.15;3.72;;;4.70;99.90;;;;;;6151513;28;20126;-82
2021/03/16 07:29:21;;;;;;;5.75;3.45;;;;;;;;;;6152440;28;20027;-82
2021/03/16 07:32:22;;;;;;;10.07;3.90;;;;;;;;;;6141415;28;20031;-89
2021/03/16 07:35:23;;;;;;;5.75;3.35;;;;;;;;;;6152632;28;20027;-82
2021/03/16 07:38:24;;;;;;;6.80;3.45;;;6.10;99.90;;;;;;6138448;28;20028;-83
2021/03/16 07:41:25;;;;;;;8.38;3.60;;;;;;;;;;6135209;28;20062;-85
2021/03/16 07:44:26;;;;;;;9.10;4.30;;;;;;;;;;6132590;28;20023;-84
2021/03/16 07:47:35;;;;;;;6.45;4.38;;;6.50;99.90;;;;;;6148617;28;20039;-84
2021/03/16 07:50:36;;;;;;;8.40;5.65;;;;;;;;;;6142975;28;20122;-83
2021/03/16 07:53:36;;;;;;;17.80;8.98;;;7.20;99.90;;;;;;6121970;28;20511;-85
2021/03/16 07:56:40;;;;;;;26.55;13.30;;;6.80;92.60;;;;;;6145441;28;20134;-82
2021/03/16 07:59:41;;;;;;;13.63;6.40;;;7.20;93.00;;;;;;6128971;28;20066;-85
2021/03/16 08:02:43;;;;;;;5.35;4.05;;;6.90;92.20;;;;;;6139371;28;20054;-84
2021/03/16 08:09:48;;;;;;;6.85;3.80;;;6.50;90.90;;;;;;6164300;28;20473;-83
2021/03/16 08:12:58;;;;;;;8.20;3.92;;;6.60;98.70;;;;;;6133987;28;20090;-86
2021/03/16 08:15:59;;;;;;;9.70;3.78;;;;;;;;;;6151178;28;20038;-88
2021/03/16 08:19:36;;;;;;;7.30;3.50;;;5.70;99.90;;;;;;6123478;28;20039;-86
2021/03/16 08:22:37;;;;;;;7.85;4.28;;;;;;;;;;6138620;28;20043;-83
2021/03/16 08:25:38;;;;;;;6.38;4.00;;;;;;;;;;6138932;28;20039;-82
2021/03/16 08:28:46;;;;;;;7.25;4.25;;;5.40;99.90;;;;;;6155182;28;20031;-81
2021/03/16 08:31:47;;;;;;;7.32;4.60;;;5.20;99.90;;;;;;6132796;28;20031;-82
2021/03/16 08:34:48;;;;;;;6.32;3.85;;;;;;;;;;6143350;28;20489;-82
2021/03/16 08:37:50;;;;;;;5.88;4.60;;;5.20;99.90;;;;;;6143550;28;20051;-82
2021/03/16 08:41:06;;;;;;;8.57;4.00;;;5.20;99.90;;;;;;6130912;28;20059;-82
2021/03/16 08:44:07;;;;;;;5.93;4.03;;;5.10;99.90;;;;;;6131026;28;20035;-82
2021/03/16 08:47:10;;;;;;;9.15;5.13;;;5.30;99.90;;;;;;6130660;28;20054;-84
2021/03/16 08:50:11;;;;;;;6.53;4.22;;;5.10;99.90;;;;;;6130686;28;20890;-80
2021/03/16 08:53:14;;;;;;;7.63;3.72;;;5.10;99.90;;;;;;6131050;28;20549;-82
2021/03/16 08:56:22;;;;;;;9.27;4.35;;;5.00;99.90;;;;;;6131039;28;20417;-82
2021/03/16 08:59:23;;;;;;;7.07;4.15;;;;;;;;;;6145371;28;20470;-81
2021/03/16 09:02:27;;;;;;;11.48;4.47;;;5.00;99.90;;;;;;6158807;28;20437;-80
2021/03/16 09:05:27;;;;;;;8.63;4.30;;;4.60;99.90;;;;;;6144478;28;20047;-82
2021/03/16 09:08:28;;;;;;;8.93;5.10;;;;;;;;;;6129851;28;20042;-81
2021/03/16 09:11:34;;;;;;;9.27;4.88;;;4.90;99.00;;;;;;6133256;28;20027;-81
2021/03/16 09:14:35;;;;;;;8.07;4.82;;;4.60;99.90;;;;;;6119637;28;20481;-80
2021/03/16 09:17:36;;;;;;;10.93;5.05;;;4.80;99.90;;;;;;6130443;28;20400;-82
2021/03/16 09:20:38;;;;;;;8.30;5.00;;;5.30;98.40;;;;;;6130241;28;20098;-81
2021/03/16 09:23:39;;;;;;;11.75;4.88;;;;;;;;;;6130154;28;20470;-82
2021/03/16 09:26:40;;;;;;;8.82;4.80;;;5.10;99.30;;;;;;6148902;28;20050;-82
2021/03/16 09:29:41;;;;;;;7.53;4.97;;;;;;;;;;6137401;28;20042;-83
2021/03/16 09:32:43;;;;;;;10.60;5.70;;;4.70;99.90;;;;;;6141885;28;20382;-82
2021/03/16 09:35:44;;;;;;;6.65;4.90;;;4.60;99.90;;;;;;6142737;28;20027;-81
2021/03/16 09:38:53;;;;;;;8.38;5.22;;;5.30;99.20;;;;;;6152970;28;20027;-83
2021/03/16 09:41:59;;;;;;;9.70;4.80;;;4.70;99.10;;;;;;6136663;28;20051;-81
2021/03/16 09:45:03;;;;;;;9.73;5.32;;;;;;;;;;6144831;28;20138;-80
2021/03/16 09:48:03;;;;;;;12.48;5.47;;;3.60;97.90;;;;;;6150073;28;20125;-81
2021/03/16 09:51:18;;;;;;;6.43;4.88;;;5.20;97.60;;;;;;6128913;28;20082;-81
2021/03/16 09:54:19;;;;;;;7.85;4.43;;;5.30;99.90;;;;;;6129619;28;20026;-80
2021/03/16 09:57:20;;;;;;;9.35;5.18;;;;;;;;;;6142706;28;20042;-80
2021/03/16 10:00:24;;;;;;;6.30;4.40;;;5.30;99.90;;;;;;6121551;28;20405;-80
2021/03/16 10:03:25;;;;;;;9.18;4.78;;;5.30;99.90;;;;;;6143060;28;20374;-82
2021/03/16 10:06:36;;;;;;;8.25;5.18;;;6.00;99.90;;;;;;6135960;28;20084;-80
2021/03/16 10:09:40;;;;;;;6.80;4.25;;;5.90;95.70;;;;;;6146689;28;20023;-82
2021/03/16 10:12:54;;;;;;;6.72;4.72;;;5.70;99.90;;;;;;6137880;28;20035;-83
2021/03/16 10:15:54;;;;;;;43.75;20.60;;;5.70;99.90;;;;;;6154794;28;20034;-82
2021/03/16 10:18:55;;;;;;;52.58;21.95;;;5.60;99.90;;;;;;6140992;28;20062;-83
2021/03/16 10:21:56;;;;;;;65.80;25.42;;;5.90;99.90;;;;;;6136939;28;20033;-82
2021/03/16 10:25:01;;;;;;;9.15;4.78;;;5.90;95.50;;;;;;6124819;28;20028;-82
2021/03/16 10:28:04;;;;;;;8.25;5.28;;;5.90;96.00;;;;;;6145441;28;20405;-84
2021/03/16 10:31:12;;;;;;;7.28;5.53;;;6.00;99.90;;;;;;6128943;28;20039;-82
2021/03/16 10:34:13;;;;;;;9.95;6.78;;;6.00;94.30;;;;;;6150584;28;20029;-83
2021/03/16 10:37:18;;;;;;;7.43;5.35;;;6.00;99.90;;;;;;6157450;28;20022;-83
2021/03/16 10:40:19;;;;;;;8.20;4.97;;;5.80;99.90;;;;;;6152009;28;20109;-83
2021/03/16 10:43:20;;;;;;;7.57;5.00;;;6.00;99.90;;;;;;6131027;28;20109;-82
2021/03/16 10:46:21;;;;;;;7.75;5.40;;;6.20;99.90;;;;;;6151764;28;20049;-82
2021/03/16 10:49:21;;;;;;;15.35;7.53;;;6.10;99.90;;;;;;6145213;28;20031;-83
2021/03/16 10:52:22;;;;;;;7.97;4.80;;;6.40;99.60;;;;;;6129774;28;20537;-82
2021/03/16 10:55:23;;;;;;;10.95;5.95;;;6.30;98.70;;;;;;6141206;28;20053;-78
2021/03/16 10:58:24;;;;;;;6.90;4.43;;;;;;;;;;6167174;28;20058;-81
2021/03/16 11:01:24;;;;;;;7.75;4.60;;;6.20;98.60;;;;;;6130532;28;20035;-83
2021/03/16 11:04:25;;;;;;;10.25;4.97;;;5.40;98.90;;;;;;6132409;28;20063;-83
2021/03/16 11:07:26;;;;;;;9.65;4.53;;;6.30;99.90;;;;;;6128817;28;20478;-82
2021/03/16 11:10:27;;;;;;;5.88;4.00;;;;;;;;;;6127696;28;20031;-84
2021/03/16 11:13:28;;;;;;;8.07;4.22;;;;;;;;;;6155141;28;20133;-83
2021/03/16 11:16:29;;;;;;;6.53;3.20;;;;;;;;;;6136181;28;20109;-83
2021/03/16 11:19:29;;;;;;;8.50;3.60;;;5.90;99.90;;;;;;6150243;28;20027;-82
2021/03/16 11:22:30;;;;;;;7.38;3.63;;;;;;;;;;6145696;28;20537;-83
2021/03/16 11:25:31;;;;;;;5.45;3.50;;;;;;;;;;6145935;28;20501;-82
2021/03/16 11:28:32;;;;;;;4.88;3.30;;;;;;;;;;6137175;28;20208;-82
2021/03/16 11:31:33;;;;;;;9.27;3.90;;;6.50;99.90;;;;;;6149493;28;20027;-81
2021/03/16 11:34:35;;;;;;;10.10;3.15;;;;;;;;;;6155546;28;20031;-83
2021/03/16 11:37:35;;;;;;;6.60;3.10;;;6.60;98.80;;;;;;6147688;28;20474;-82
2021/03/16 11:40:36;;;;;;;8.85;3.28;;;;;;;;;;6150823;28;20069;-82
2021/03/16 11:43:37;;;;;;;4.25;3.00;;;6.90;96.00;;;;;;6155565;28;20386;-81
2021/03/16 11:46:38;;;;;;;4.68;2.92;;;7.00;96.10;;;;;;6138512;28;20039;-82
2021/03/16 11:49:38;;;;;;;6.63;3.00;;;7.00;93.70;;;;;;6150024;28;20035;-81
2021/03/16 11:52:39;;;;;;;6.40;2.55;;;7.20;98.00;;;;;;6144953;28;20034;-81
2021/03/16 11:55:39;;;;;;;6.95;2.88;;;6.80;90.40;;;;;;6154814;28;20044;-81
2021/03/16 11:58:40;;;;;;;9.63;3.60;;;;;;;;;;6154922;28;20385;-81
2021/03/16 12:01:41;;;;;;;4.38;3.28;;;6.90;95.70;;;;;;6172378;28;20031;-82
2021/03/16 12:04:42;;;;;;;7.00;2.80;;;;;;;;;;6141696;28;20106;-81
2021/03/16 12:07:43;;;;;;;5.03;2.20;;;6.70;94.80;;;;;;6149610;28;20043;-82
2021/03/16 12:10:43;;;;;;;3.67;2.40;;;7.30;95.40;;;;;;6147704;28;20453;-82
2021/03/16 12:13:44;;;;;;;5.32;3.22;;;;;;;;;;6133543;28;20158;-82
2021/03/16 12:16:45;;;;;;;4.53;2.28;;;7.20;93.40;;;;;;6144200;28;20630;-79
2021/03/16 12:19:46;;;;;;;4.53;2.10;;;7.30;93.70;;;;;;6162585;28;20150;-78
2021/03/16 12:22:46;;;;;;;5.13;2.42;;;7.50;90.80;;;;;;6147691;28;20477;-79
2021/03/16 12:25:51;;;;;;;6.30;2.53;;;;;;;;;;6133400;28;20043;-79
2021/03/16 12:28:53;;;;;;;5.40;2.45;;;;;;;;;;6159043;28;20019;-79
2021/03/16 12:31:54;;;;;;;6.32;2.45;;;;;;;;;;6149457;28;20027;-78
2021/03/16 12:34:55;;;;;;;2.92;2.20;;;;;;;;;;6155196;28;20085;-77
2021/03/16 12:37:56;;;;;;;4.82;2.40;;;;;;;;;;6162506;28;20038;-79
2021/03/16 12:40:56;;;;;;;3.58;2.30;;;8.20;91.90;;;;;;6157958;28;20047;-80
2021/03/16 12:43:57;;;;;;;10.50;2.65;;;;;;;;;;6153636;28;20099;-79
2021/03/16 12:46:59;;;;;;;6.82;2.40;;;8.40;76.40;;;;;;6170713;28;20549;-79
2021/03/16 12:49:59;;;;;;;7.00;2.50;;;8.20;80.10;;;;;;6153517;28;20134;-81
2021/03/16 12:53:00;;;;;;;7.60;2.70;;;8.00;92.50;;;;;;6138487;28;20037;-80
2021/03/16 12:56:01;;;;;;;8.68;2.33;;;7.60;89.10;;;;;;6147005;28;20086;-80
2021/03/16 12:59:02;;;;;;;5.55;2.20;;;;;;;;;;6126642;28;20035;-80
2021/03/16 13:02:03;;;;;;;3.80;2.40;;;7.30;94.00;;;;;;6159849;28;20038;-79
2021/03/16 13:05:04;;;;;;;7.53;2.40;;;;;;;;;;6151691;28;20030;-79
2021/03/16 13:08:05;;;;;;;4.22;2.83;;;6.20;98.00;;;;;;6146830;28;20042;-83
2021/03/16 13:11:06;;;;;;;10.43;3.38;;;;;;;;;;6132081;28;20481;-81
2021/03/16 13:14:07;;;;;;;5.18;2.80;;;;;;;;;;6163187;28;20029;-81
2021/03/16 13:17:07;;;;;;;8.43;2.92;;;5.80;99.90;;;;;;6146596;28;20027;-82
2021/03/16 13:20:09;;;;;;;6.30;2.63;;;5.90;93.70;;;;;;6146946;28;20509;-82
2021/03/16 13:23:09;;;;;;;4.80;2.83;;;5.60;99.50;;;;;;6136687;28;20817;-82
2021/03/16 13:26:10;;;;;;;8.40;2.80;;;5.70;93.00;;;;;;6153374;28;20098;-82
2021/03/16 13:29:11;;;;;;;3.80;2.40;;;;;;;;;;6138272;28;20478;-82
2021/03/16 13:32:12;;;;;;;6.68;3.20;;;6.40;95.50;;;;;;6128566;28;20030;-84
2021/03/16 13:35:13;;;;;;;4.97;2.72;;;;;;;;;;6129609;28;20590;-82
2021/03/16 13:38:14;;;;;;;9.98;3.00;;;6.80;97.40;;;;;;6137383;28;20543;-87
2021/03/16 13:41:15;;;;;;;3.42;2.40;;;;;;;;;;6124718;28;20055;-80
2021/03/16 13:44:15;;;;;;;6.65;2.72;;;7.40;96.10;;;;;;6141399;28;20027;-82
2021/03/16 13:47:16;;;;;;;6.43;2.67;;;7.40;94.60;;;;;;6132001;28;20474;-82
2021/03/16 13:50:17;;;;;;;6.22;2.88;;;;;;;;;;6123965;28;20062;-85
2021/03/16 13:53:18;;;;;;;6.68;4.35;;;8.00;93.50;;;;;;6130192;28;20027;-85
2021/03/16 13:56:18;;;;;;;5.10;2.70;;;8.00;92.30;;;;;;6133274;28;20454;-84
2021/03/16 13:59:20;;;;;;;5.32;2.58;;;;;;;;;;6130143;28;20035;-85
2021/03/16 14:02:20;;;;;;;8.45;3.20;;;8.10;94.20;;;;;;6142535;28;20038;-85
2021/03/16 14:05:21;;;;;;;6.75;3.10;;;;;;;;;;6146889;28;20114;-87
2021/03/16 14:08:23;;;;;;;7.43;4.32;;;8.00;93.70;;;;;;6129737;28;20019;-89
2021/03/16 14:11:24;;;;;;;5.82;3.08;;;;;;;;;;6144147;28;20357;-89
2021/03/16 14:14:25;;;;;;;3.65;2.40;;;8.50;90.50;;;;;;6123139;28;20086;-86
2021/03/16 14:17:26;;;;;;;4.70;2.70;;;;;;;;;;6137466;28;20117;-90
2021/03/16 14:20:31;;;;;;;9.40;3.72;;;8.40;92.40;;;;;;6136372;28;20035;-88
2021/03/16 14:23:33;;;;;;;3.85;2.70;;;;;;;;;;6141635;28;20057;-86
2021/03/16 14:26:46;;;;;;;5.18;2.42;;;8.60;75.30;;;;;;6132649;28;20393;-88
2021/03/16 14:29:47;;;;;;;6.65;2.50;;;;;;;;;;6117757;28;20061;-86
2021/03/16 14:32:47;;;;;;;4.07;3.22;;;8.50;93.00;;;;;;6144071;28;20484;-89
2021/03/16 14:35:48;;;;;;;6.80;3.40;;;;;;;;;;6135730;28;20027;-86
2021/03/16 14:38:50;;;;;;;4.15;2.60;;;;;;;;;;6141409;28;20027;-86
2021/03/16 14:41:51;;;;;;;6.03;3.30;;;8.50;93.30;;;;;;6135024;28;20051;-86
2021/03/16 14:44:52;;;;;;;6.07;2.35;;;8.40;92.30;;;;;;6146585;28;20041;-87
2021/03/16 14:47:53;;;;;;;8.77;2.85;;;8.20;93.90;;;;;;6127411;28;20041;-87
2021/03/16 14:50:54;;;;;;;5.78;2.75;;;;;;;;;;6141068;28;20394;-86
2021/03/16 14:53:55;;;;;;;5.70;3.05;;;;;;;;;;6141878;28;20070;-87
2021/03/16 14:56:55;;;;;;;5.43;2.70;;;8.40;93.50;;;;;;6150564;28;20035;-88
2021/03/16 14:59:56;;;;;;;3.97;2.20;;;;;;;;;;6144860;28;20541;-85
2021/03/16 15:02:57;;;;;;;3.92;2.50;;;8.10;95.30;;;;;;6121208;28;20064;-86
2021/03/16 15:05:58;;;;;;;6.10;2.47;;;;;;;;;;6128430;28;20180;-86
2021/03/16 15:12:53;;;;;;;5.22;2.50;;;;;;;;;;6148088;28;20445;-87
2021/03/16 15:15:54;;;;;;;4.60;2.70;;;;;;;;;;6132106;28;20102;-88
2021/03/16 15:18:58;;;;;;;6.82;2.80;;;7.90;81.20;;;;;;6132230;28;20110;-88
2021/03/16 15:22:30;;;;;;;5.32;2.60;;;7.90;82.30;;;;;;6146610;28;20031;-86
2021/03/16 15:25:31;;;;;;;6.68;3.03;;;7.80;97.40;;;;;;6155087;28;20034;-89
2021/03/16 15:28:32;;;;;;;6.82;3.50;;;;;;;;;;6137597;28;20067;-87
2021/03/16 15:31:32;;;;;;;4.25;3.17;;;7.30;97.80;;;;;;6129576;28;20101;-86
2021/03/16 15:34:33;;;;;;;6.15;3.58;;;;;;;;;;6144742;28;20366;-87
2021/03/16 15:37:35;;;;;;;9.00;3.20;;;;;;;;;;6124609;28;20035;-86
2021/03/16 15:40:36;;;;;;;3.85;2.70;;;;;;;;;;6147285;28;20074;-87
2021/03/16 15:43:39;;;;;;;3.63;2.45;;;6.70;91.10;;;;;;6131147;28;20058;-86
2021/03/16 15:46:40;;;;;;;5.93;2.95;;;6.60;99.90;;;;;;6144557;28;20496;-87
2021/03/16 15:49:41;;;;;;;5.80;3.05;;;;;;;;;;6141247;28;20058;-89
2021/03/16 15:52:42;;;;;;;7.47;3.13;;;;;;;;;;6146717;28;20077;-86
2021/03/16 15:55:43;;;;;;;3.88;2.80;;;6.40;99.90;;;;;;6137387;28;20082;-88
2021/03/16 15:58:44;;;;;;;4.25;2.60;;;;;;;;;;6142761;28;20026;-86
2021/03/16 16:01:45;;;;;;;3.67;2.70;;;;;;;;;;6127575;28;20043;-87
2021/03/16 16:04:46;;;;;;;5.20;3.25;;;;;;;;;;6151219;28;20627;-86
2021/03/16 16:07:47;;;;;;;3.58;2.75;;;;;;;;;;6129516;28;20039;-87
2021/03/16 16:11:29;;;;;;;7.15;2.97;;;6.30;99.90;;;;;;6139826;28;20027;-87
2021/03/16 16:14:30;;;;;;;6.18;3.40;;;;;;;;;;6159409;28;20125;-89
2021/03/16 16:17:53;;;;;;;3.70;2.83;;;6.60;92.70;;;;;;6139491;28;20023;-86
2021/03/16 16:20:53;;;;;;;;;;;6.60;94.20;;;;;;6135188;28;20437;-89
2021/03/16 16:23:55;;;;;;;4.25;2.92;;;;;;;;;;6163395;28;19974;-89
2021/03/16 16:27:02;;;;;;;6.75;3.47;;;6.80;99.90;;;;;;6132271;28;20125;-89
2021/03/16 16:30:03;;;;;;;6.25;3.47;;;6.70;99.90;;;;;;6147533;28;20023;-86
2021/03/16 16:33:04;;;;;;;4.23;3.07;;;6.80;99.90;;;;;;6138717;28;20035;-90
2021/03/16 16:36:06;;;;;;;5.97;4.20;;;;;;;;;;6132463;28;20034;-89
2021/03/16 16:39:07;;;;;;;8.05;4.63;;;;;;;;;;6129920;28;20070;-89
2021/03/16 16:42:10;;;;;;;6.80;4.50;;;6.60;99.90;;;;;;6139858;28;20055;-88
2021/03/16 16:45:12;;;;;;;5.72;3.88;;;;;;;;;;6160035;28;20061;-90